Time;durP1;ratioP1;P1;durP2;ratioP2;P2;SDS_P1;SDS_P2;PMS_P1;PMS_P2;Temp;Humidity;BMP_temperature;BMP_pressure;BME280_temperature;BME280_humidity;BME280_pressure;Samples;Min_cycle;Max_cycle;Signal;HPM_P1;HPM_P2
2022/07/28 00:01:03;;;;;;;5.70;2.17;;;;;;;;;;4995802;28;20097;-71
2022/07/28 00:03:28;;;;;;;3.40;2.20;;;;;;;;;;4995563;28;20046;-71
2022/07/28 00:05:54;;;;;;;5.47;3.10;;;;;;;;;;4995989;28;20037;-71
2022/07/28 00:08:20;;;;;;;6.55;2.60;;;;;;;;;;4995689;28;20393;-72
2022/07/28 00:10:46;;;;;;;5.03;2.78;;;;;;;;;;4996116;28;20038;-71
2022/07/28 00:13:12;;;;;;;4.65;2.20;;;;;;;;;;4995565;28;20034;-71
2022/07/28 00:15:38;;;;;;;7.90;2.75;;;;;;;;;;4995511;28;20385;-73
2022/07/28 00:18:05;;;;;;;4.28;2.63;;;;;;;;;;4995504;28;20072;-71
2022/07/28 00:20:31;;;;;;;5.60;2.58;;;;;;;;;;4995679;28;20037;-72
2022/07/28 00:22:57;;;;;;;4.85;2.70;;;;;;;;;;4995696;28;20088;-71
2022/07/28 00:25:23;;;;;;;3.50;2.60;;;;;;;;;;4995929;28;20080;-72
2022/07/28 00:27:49;;;;;;;4.20;2.72;;;;;;;;;;4995570;28;20018;-71
2022/07/28 00:30:15;;;;;;;6.50;3.00;;;;;;;;;;4995759;28;20026;-71
2022/07/28 00:32:41;;;;;;;5.93;3.00;;;;;;;;;;4995214;28;20027;-72
2022/07/28 00:35:07;;;;;;;9.35;2.78;;;;;;;;;;4995395;28;20031;-72
2022/07/28 00:37:33;;;;;;;6.95;2.55;;;;;;;;;;4995643;28;20033;-71
2022/07/28 00:39:59;;;;;;;4.43;2.65;;;;;;;;;;4994955;28;20117;-72
2022/07/28 00:42:25;;;;;;;4.28;2.65;;;;;;;;;;4995018;28;20396;-70
2022/07/28 00:44:51;;;;;;;4.22;2.67;;;;;;;;;;4994974;28;20033;-72
2022/07/28 00:47:18;;;;;;;6.18;2.70;;;;;;;;;;4994977;28;20030;-70
2022/07/28 00:49:45;;;;;;;6.63;2.92;;;;;;;;;;4994884;28;20540;-71
2022/07/28 00:52:11;;;;;;;5.72;2.60;;;;;;;;;;4994884;28;20405;-72
2022/07/28 00:54:37;;;;;;;5.88;2.95;;;;;;;;;;4995025;28;20117;-73
2022/07/28 00:57:04;;;;;;;5.72;2.50;;;;;;;;;;4995024;28;20081;-71
2022/07/28 00:59:30;;;;;;;4.93;2.67;;;;;;;;;;4994871;28;20026;-72
2022/07/28 01:01:57;;;;;;;5.00;2.78;;;;;;;;;;4994626;28;20023;-71
2022/07/28 01:04:24;;;;;;;5.30;2.63;;;;;;;;;;4994410;28;20058;-72
2022/07/28 01:07:09;;;;;;;5.25;2.75;;;;;;;;;;4994625;28;20026;-71
2022/07/28 01:09:42;;;;;;;6.25;2.95;;;;;;;;;;4977394;28;20049;-73
2022/07/28 01:12:18;;;;;;;4.88;2.50;;;;;;;;;;4995034;28;20022;-72
2022/07/28 01:14:47;;;;;;;8.48;2.97;;;;;;;;;;4994755;28;20050;-71
2022/07/28 01:17:19;;;;;;;5.93;2.45;;;;;;;;;;4994939;28;20022;-72
2022/07/28 01:19:45;;;;;;;7.43;2.92;;;;;;;;;;4994559;28;20477;-72
2022/07/28 01:22:15;;;;;;;5.70;2.40;;;;;;;;;;4994618;28;20026;-73
2022/07/28 01:25:00;;;;;;;5.53;2.75;;;;;;;;;;4994605;28;20530;-71
2022/07/28 01:27:33;;;;;;;10.43;3.15;;;;;;;;;;4994281;28;20094;-73
2022/07/28 01:30:08;;;;;;;5.03;2.47;;;;;;;;;;4994253;28;20054;-71
2022/07/28 01:32:46;;;;;;;5.00;2.88;;;;;;;;;;4994428;28;20026;-71
2022/07/28 01:35:15;;;;;;;6.38;2.70;;;;;;;;;;4994175;28;20038;-71
2022/07/28 01:37:43;;;;;;;5.50;2.90;;;;;;;;;;4994632;28;20030;-73
2022/07/28 01:40:10;;;;;;;3.20;2.38;;;;;;;;;;4994298;28;20026;-72
2022/07/28 01:42:39;;;;;;;5.60;2.88;;;;;;;;;;4994082;28;20026;-72
2022/07/28 01:45:07;;;;;;;6.15;2.50;;;;;;;;;;4994217;28;20033;-72
2022/07/28 01:47:33;;;;;;;5.22;3.20;;;;;;;;;;4994201;28;20072;-71
2022/07/28 01:50:02;;;;;;;5.57;2.70;;;;;;;;;;4993910;28;20031;-71
2022/07/28 01:52:29;;;;;;;5.63;3.20;;;;;;;;;;4976517;28;20030;-72
2022/07/28 01:54:57;;;;;;;6.28;2.83;;;;;;;;;;4994137;28;20031;-72
2022/07/28 01:57:24;;;;;;;4.80;2.92;;;;;;;;;;4993865;28;20440;-72
2022/07/28 01:59:51;;;;;;;5.10;3.00;;;;;;;;;;4976210;28;20037;-72
2022/07/28 02:02:18;;;;;;;7.05;2.92;;;;;;;;;;4994259;28;20101;-71
2022/07/28 02:04:44;;;;;;;5.03;2.95;;;;;;;;;;4993368;28;20046;-71
2022/07/28 02:07:11;;;;;;;6.32;2.72;;;;;;;;;;4998033;28;20106;-72
2022/07/28 02:09:37;;;;;;;8.15;2.95;;;;;;;;;;5000764;28;20050;-72
2022/07/28 02:12:04;;;;;;;6.43;3.25;;;;;;;;;;5000256;28;20447;-72
2022/07/28 02:14:31;;;;;;;5.78;3.10;;;;;;;;;;5000456;28;20054;-71
2022/07/28 02:16:59;;;;;;;5.90;2.88;;;;;;;;;;5000459;28;20026;-73
2022/07/28 02:19:26;;;;;;;5.78;2.90;;;;;;;;;;5000114;28;20440;-72
2022/07/28 02:21:53;;;;;;;8.40;3.60;;;;;;;;;;5000123;28;20050;-72
2022/07/28 02:24:21;;;;;;;4.47;3.30;;;;;;;;;;5000088;28;20026;-70
2022/07/28 02:26:53;;;;;;;8.63;3.13;;;;;;;;;;5000093;28;20027;-72
2022/07/28 02:29:22;;;;;;;5.32;3.30;;;;;;;;;;5000092;28;20381;-73
2022/07/28 02:31:53;;;;;;;5.13;2.90;;;;;;;;;;5000115;28;20026;-71
2022/07/28 02:34:22;;;;;;;5.45;3.05;;;;;;;;;;5000025;28;20037;-72
2022/07/28 02:36:54;;;;;;;6.72;3.40;;;;;;;;;;5000004;28;20030;-74
2022/07/28 02:39:23;;;;;;;7.20;3.13;;;;;;;;;;4999997;28;20026;-71
2022/07/28 02:41:52;;;;;;;5.57;3.72;;;;;;;;;;5000165;28;20101;-73
2022/07/28 02:44:21;;;;;;;5.70;3.30;;;;;;;;;;4999935;28;20065;-72
2022/07/28 02:46:48;;;;;;;5.43;3.10;;;;;;;;;;4999908;28;20050;-71
2022/07/28 02:49:19;;;;;;;7.40;3.63;;;;;;;;;;4999884;28;20023;-72
2022/07/28 02:51:46;;;;;;;6.65;3.78;;;;;;;;;;5000172;28;20393;-72
2022/07/28 02:54:12;;;;;;;7.63;2.72;;;;;;;;;;4999864;28;20030;-71
2022/07/28 02:56:39;;;;;;;5.47;2.97;;;;;;;;;;5000115;28;20100;-74
2022/07/28 02:59:06;;;;;;;5.68;3.38;;;;;;;;;;4999775;28;20030;-70
2022/07/28 03:01:32;;;;;;;4.47;2.70;;;;;;;;;;4982166;28;20030;-71
2022/07/28 03:03:58;;;;;;;6.25;2.90;;;;;;;;;;4999582;28;20066;-71
2022/07/28 03:06:24;;;;;;;5.63;3.08;;;;;;;;;;4999740;28;20481;-74
2022/07/28 03:08:50;;;;;;;8.95;3.78;;;;;;;;;;4999724;28;20023;-71
2022/07/28 03:11:16;;;;;;;5.60;3.17;;;;;;;;;;5000516;28;20396;-72
2022/07/28 03:13:43;;;;;;;6.40;3.10;;;;;;;;;;4999681;28;20022;-73
2022/07/28 03:16:10;;;;;;;9.57;3.50;;;;;;;;;;5000221;28;20031;-73
2022/07/28 03:18:36;;;;;;;5.88;3.03;;;;;;;;;;4996574;28;20026;-73
2022/07/28 03:21:02;;;;;;;4.78;2.78;;;;;;;;;;4996551;28;20496;-72
2022/07/28 03:23:32;;;;;;;6.00;2.92;;;;;;;;;;4996535;28;20022;-72
2022/07/28 03:26:01;;;;;;;10.23;3.08;;;;;;;;;;4996488;28;20026;-72
2022/07/28 03:28:28;;;;;;;6.07;3.00;;;;;;;;;;4996743;28;20100;-71
2022/07/28 03:30:59;;;;;;;5.60;3.05;;;;;;;;;;4996386;28;20258;-72
2022/07/28 03:33:26;;;;;;;6.13;3.05;;;;;;;;;;4996743;28;20038;-71
2022/07/28 03:35:53;;;;;;;5.78;3.13;;;;;;;;;;4996613;28;20109;-72
2022/07/28 03:38:33;;;;;;;4.75;3.20;;;;;;;;;;4996320;28;20496;-71
2022/07/28 03:40:59;;;;;;;7.22;3.53;;;;;;;;;;4996728;28;20113;-71
2022/07/28 03:43:28;;;;;;;5.93;3.00;;;;;;;;;;4978680;28;20081;-72
2022/07/28 03:45:54;;;;;;;5.38;3.35;;;;;;;;;;4978633;28;20485;-74
2022/07/28 03:48:23;;;;;;;5.15;3.28;;;;;;;;;;4996049;28;20026;-71
2022/07/28 03:50:49;;;;;;;6.20;3.10;;;;;;;;;;4996335;28;20408;-71
2022/07/28 03:53:25;;;;;;;7.32;3.33;;;;;;;;;;4996027;28;20040;-71
2022/07/28 03:55:52;;;;;;;4.72;2.90;;;;;;;;;;4996508;28;20042;-72
2022/07/28 03:58:22;;;;;;;8.10;2.95;;;;;;;;;;4995913;28;20089;-75
2022/07/28 04:00:48;;;;;;;4.32;2.72;;;;;;;;;;4978278;28;20035;-72
2022/07/28 04:03:14;;;;;;;4.93;2.90;;;;;;;;;;4995630;28;20394;-73
2022/07/28 04:05:40;;;;;;;7.20;3.65;;;;;;;;;;4995744;28;20030;-73
2022/07/28 04:08:06;;;;;;;7.82;3.33;;;;;;;;;;4995986;28;20022;-72
2022/07/28 04:10:32;;;;;;;5.18;2.70;;;;;;;;;;4996153;28;20030;-72
2022/07/28 04:12:59;;;;;;;6.03;2.88;;;;;;;;;;4995627;28;20029;-72
2022/07/28 04:15:26;;;;;;;6.05;3.30;;;;;;;;;;4995600;28;20030;-74
2022/07/28 04:17:53;;;;;;;5.05;2.67;;;;;;;;;;4995571;28;20026;-72
2022/07/28 04:20:20;;;;;;;5.97;3.20;;;;;;;;;;4995658;28;20053;-72
2022/07/28 04:22:47;;;;;;;9.55;3.45;;;;;;;;;;4995413;28;20109;-73
2022/07/28 04:25:13;;;;;;;5.60;3.33;;;;;;;;;;4995384;28;20117;-72
2022/07/28 04:27:40;;;;;;;8.82;3.20;;;;;;;;;;4995598;28;20073;-72
2022/07/28 04:30:07;;;;;;;7.57;3.38;;;;;;;;;;4994952;28;20077;-71
2022/07/28 04:32:33;;;;;;;5.75;3.20;;;;;;;;;;4995538;28;20037;-73
2022/07/28 04:34:59;;;;;;;8.63;3.45;;;;;;;;;;4995214;28;20481;-74
2022/07/28 04:37:26;;;;;;;5.88;3.20;;;;;;;;;;4977715;28;20076;-73
2022/07/28 04:39:53;;;;;;;8.35;3.30;;;;;;;;;;4977674;28;20060;-72
2022/07/28 04:42:19;;;;;;;6.32;2.90;;;;;;;;;;4995414;28;20029;-72
2022/07/28 04:44:45;;;;;;;4.30;2.80;;;;;;;;;;4995052;28;20030;-74
2022/07/28 04:47:12;;;;;;;5.57;2.92;;;;;;;;;;4995088;28;20432;-72
2022/07/28 04:49:38;;;;;;;6.13;2.50;;;;;;;;;;4994898;28;20058;-72
2022/07/28 04:52:07;;;;;;;5.18;3.00;;;;;;;;;;4995209;28;20019;-70
2022/07/28 04:54:33;;;;;;;8.65;3.53;;;;;;;;;;4994852;28;20022;-72
2022/07/28 04:56:59;;;;;;;5.20;3.20;;;;;;;;;;4994800;28;20027;-72
2022/07/28 04:59:25;;;;;;;8.93;4.45;;;;;;;;;;4994779;28;20469;-71
2022/07/28 05:01:51;;;;;;;6.40;3.63;;;;;;;;;;4994633;28;20446;-71
2022/07/28 05:04:17;;;;;;;5.35;3.28;;;;;;;;;;4994476;28;20109;-73
2022/07/28 05:06:43;;;;;;;7.05;3.78;;;;;;;;;;4994885;28;20424;-73
2022/07/28 05:09:09;;;;;;;8.10;4.22;;;;;;;;;;4994839;28;20084;-73
2022/07/28 05:11:36;;;;;;;6.30;3.40;;;;;;;;;;4995057;28;20026;-72
2022/07/28 05:14:02;;;;;;;8.40;3.60;;;;;;;;;;4994737;28;20500;-71
2022/07/28 05:16:28;;;;;;;7.75;3.45;;;;;;;;;;4994471;28;20033;-72
2022/07/28 05:18:54;;;;;;;6.93;3.53;;;;;;;;;;4994388;28;20030;-71
2022/07/28 05:21:20;;;;;;;7.13;3.67;;;;;;;;;;4994256;28;20122;-71
2022/07/28 05:23:46;;;;;;;5.68;3.38;;;;;;;;;;4994319;28;20588;-73
2022/07/28 05:26:13;;;;;;;8.20;4.20;;;;;;;;;;4994532;28;20018;-71
2022/07/28 05:28:39;;;;;;;7.22;3.72;;;;;;;;;;4994271;28;20022;-73
2022/07/28 05:31:06;;;;;;;7.82;4.13;;;;;;;;;;4994189;28;20027;-73
2022/07/28 05:33:33;;;;;;;8.25;4.20;;;;;;;;;;4994170;28;20440;-71
2022/07/28 05:35:59;;;;;;;8.15;3.58;;;;;;;;;;4976628;28;20026;-72
2022/07/28 05:38:25;;;;;;;6.75;3.75;;;;;;;;;;4994074;28;20078;-72
2022/07/28 05:40:51;;;;;;;11.48;3.65;;;;;;;;;;4993674;28;20477;-72
2022/07/28 05:43:18;;;;;;;10.23;3.42;;;;;;;;;;4993937;28;20500;-72
2022/07/28 05:45:44;;;;;;;9.18;3.80;;;;;;;;;;4994010;28;20652;-73
2022/07/28 05:48:10;;;;;;;6.75;3.58;;;;;;;;;;4993907;28;20109;-73
2022/07/28 05:50:36;;;;;;;7.00;3.85;;;;;;;;;;4993992;28;20562;-71
2022/07/28 05:53:02;;;;;;;9.32;4.50;;;;;;;;;;4993900;28;20034;-71
2022/07/28 05:55:28;;;;;;;6.50;3.88;;;;;;;;;;4994117;28;20392;-71
2022/07/28 05:57:54;;;;;;;5.53;3.47;;;;;;;;;;4993882;28;20069;-72
2022/07/28 06:00:22;;;;;;;7.45;3.67;;;;;;;;;;4993804;28;20026;-73
2022/07/28 06:02:48;;;;;;;8.60;3.63;;;;;;;;;;4993800;28;20030;-72
2022/07/28 06:05:18;;;;;;;8.75;3.95;;;;;;;;;;4993835;28;20053;-74
2022/07/28 06:07:45;;;;;;;10.95;4.80;;;;;;;;;;4993791;28;20105;-73
2022/07/28 06:10:12;;;;;;;11.15;4.82;;;;;;;;;;4994313;28;20114;-72
2022/07/28 06:12:42;;;;;;;6.93;3.80;;;;;;;;;;4976312;28;20038;-71
2022/07/28 06:15:12;;;;;;;9.93;4.43;;;;;;;;;;4993703;28;20027;-73
2022/07/28 06:17:38;;;;;;;9.48;3.95;;;;;;;;;;4993692;28;20035;-71
2022/07/28 06:20:04;;;;;;;10.07;3.88;;;;;;;;;;4976079;28;20039;-73
2022/07/28 06:22:39;;;;;;;10.60;4.10;;;;;;;;;;4993645;28;20396;-72
2022/07/28 06:25:06;;;;;;;6.90;4.03;;;;;;;;;;4993658;28;20081;-74
2022/07/28 06:27:32;;;;;;;9.00;4.50;;;;;;;;;;4993824;28;20023;-72
2022/07/28 06:29:58;;;;;;;8.77;4.78;;;;;;;;;;4976082;28;20136;-72
2022/07/28 06:32:24;;;;;;;11.60;4.95;;;;;;;;;;4993584;28;20037;-71
2022/07/28 06:34:50;;;;;;;14.25;4.57;;;;;;;;;;4993543;28;20026;-71
2022/07/28 06:37:16;;;;;;;12.15;5.10;;;;;;;;;;4993517;28;20436;-73
2022/07/28 06:39:41;;;;;;;7.65;4.90;;;;;;;;;;4993708;28;20026;-74
2022/07/28 06:42:07;;;;;;;10.70;4.78;;;;;;;;;;4993476;28;20435;-72
2022/07/28 06:44:34;;;;;;;9.88;5.15;;;;;;;;;;4993426;28;20022;-71
2022/07/28 06:47:00;;;;;;;8.20;4.65;;;;;;;;;;4993447;28;20026;-72
2022/07/28 06:49:26;;;;;;;12.05;5.30;;;;;;;;;;4993504;28;20045;-72
2022/07/28 06:51:52;;;;;;;6.80;4.25;;;;;;;;;;4993444;28;20023;-71
2022/07/28 06:54:18;;;;;;;9.63;4.53;;;;;;;;;;4997284;28;20177;-72
2022/07/28 06:56:44;;;;;;;10.75;4.40;;;;;;;;;;4997070;28;20516;-71
2022/07/28 06:59:10;;;;;;;10.30;4.47;;;;;;;;;;4997036;28;20109;-72
2022/07/28 07:01:36;;;;;;;8.93;4.65;;;;;;;;;;4996797;28;20031;-73
2022/07/28 07:04:02;;;;;;;11.95;4.10;;;;;;;;;;4979264;28;20046;-73
2022/07/28 07:06:28;;;;;;;9.85;4.72;;;;;;;;;;4992073;28;20509;-72
2022/07/28 07:08:54;;;;;;;12.25;4.63;;;;;;;;;;4991979;28;20057;-70
2022/07/28 07:11:20;;;;;;;13.98;4.93;;;;;;;;;;4994316;28;20030;-79
2022/07/28 07:13:46;;;;;;;7.72;4.18;;;;;;;;;;4977375;28;20023;-76
2022/07/28 07:16:12;;;;;;;10.95;4.32;;;;;;;;;;4959877;28;20035;-75
2022/07/28 07:18:38;;;;;;;8.57;3.75;;;;;;;;;;4977183;28;20034;-74
2022/07/28 07:21:04;;;;;;;10.02;4.45;;;;;;;;;;4976808;28;20054;-76
2022/07/28 07:23:30;;;;;;;10.73;4.50;;;;;;;;;;4977069;28;20585;-74
2022/07/28 07:25:56;;;;;;;10.25;4.28;;;;;;;;;;4993306;28;20504;-74
2022/07/28 07:28:22;;;;;;;8.10;4.30;;;;;;;;;;4990759;28;20027;-77
2022/07/28 07:30:48;;;;;;;9.50;3.88;;;;;;;;;;4977789;28;20058;-74
2022/07/28 07:33:14;;;;;;;9.70;3.88;;;;;;;;;;4977022;28;20409;-75
2022/07/28 07:35:40;;;;;;;13.48;4.32;;;;;;;;;;4976859;28;20030;-74
2022/07/28 07:38:06;;;;;;;8.13;4.10;;;;;;;;;;4977213;28;20078;-74
2022/07/28 07:40:32;;;;;;;11.02;4.70;;;;;;;;;;4959423;28;20035;-79
2022/07/28 07:42:58;;;;;;;9.65;4.03;;;;;;;;;;4976748;28;20486;-72
2022/07/28 07:45:37;;;;;;;9.73;3.95;;;;;;;;;;4991380;28;20022;-72
2022/07/28 07:48:03;;;;;;;9.23;3.55;;;;;;;;;;5004745;28;20025;-76
2022/07/28 07:50:29;;;;;;;9.75;3.63;;;;;;;;;;4965286;28;20037;-77
2022/07/28 07:52:55;;;;;;;14.15;3.90;;;;;;;;;;4976845;28;20390;-82
2022/07/28 07:55:21;;;;;;;9.27;4.47;;;;;;;;;;4979984;28;20034;-82
2022/07/28 07:57:47;;;;;;;6.90;3.40;;;;;;;;;;4986252;28;20038;-81
2022/07/28 08:00:14;;;;;;;8.88;3.88;;;;;;;;;;4958810;28;20560;-70
2022/07/28 08:02:43;;;;;;;8.88;3.80;;;;;;;;;;4975711;28;20422;-76
2022/07/28 08:05:09;;;;;;;9.40;3.43;;;;;;;;;;4975989;28;20031;-76
2022/07/28 08:07:36;;;;;;;5.30;3.05;;;;;;;;;;4958976;28;20023;-75
2022/07/28 08:10:03;;;;;;;8.02;3.17;;;;;;;;;;4976366;28;20118;-75
2022/07/28 08:12:29;;;;;;;10.07;3.88;;;;;;;;;;4986979;28;20568;-75
2022/07/28 08:14:55;;;;;;;9.02;3.10;;;;;;;;;;4976530;28;20093;-76
2022/07/28 08:17:21;;;;;;;8.52;3.20;;;;;;;;;;4975862;28;20494;-77
2022/07/28 08:19:47;;;;;;;11.02;3.75;;;;;;;;;;4976014;28;20027;-76
2022/07/28 08:22:14;;;;;;;6.85;2.70;;;;;;;;;;4977712;28;20019;-78
2022/07/28 08:24:40;;;;;;;7.80;2.70;;;;;;;;;;4975843;28;20022;-76
2022/07/28 08:27:06;;;;;;;7.60;2.75;;;;;;;;;;4971242;28;20034;-77
2022/07/28 08:29:33;;;;;;;8.18;2.75;;;;;;;;;;4975636;28;20062;-75
2022/07/28 08:32:02;;;;;;;5.85;2.20;;;;;;;;;;4976509;28;20027;-75
2022/07/28 08:34:29;;;;;;;6.95;2.40;;;;;;;;;;4971783;28;20042;-83
2022/07/28 08:36:55;;;;;;;4.85;2.50;;;;;;;;;;4993746;28;20040;-76
2022/07/28 08:39:21;;;;;;;5.40;2.47;;;;;;;;;;4975591;28;20085;-79
2022/07/28 08:41:50;;;;;;;5.40;2.38;;;;;;;;;;4978566;28;20033;-75
2022/07/28 08:44:24;;;;;;;6.88;2.55;;;;;;;;;;4976550;28;20113;-76
2022/07/28 08:46:50;;;;;;;6.53;2.63;;;;;;;;;;4976005;28;20054;-75
2022/07/28 08:49:16;;;;;;;6.60;2.55;;;;;;;;;;4998548;28;20049;-74
2022/07/28 08:51:43;;;;;;;8.70;2.97;;;;;;;;;;4976990;28;20033;-75
2022/07/28 08:54:10;;;;;;;9.10;2.33;;;;;;;;;;4972050;28;20151;-72
2022/07/28 08:56:40;;;;;;;6.22;2.80;;;;;;;;;;4980744;28;20073;-71
2022/07/28 08:59:06;;;;;;;5.82;2.63;;;;;;;;;;4975661;28;20054;-72
2022/07/28 09:01:33;;;;;;;9.20;2.42;;;;;;;;;;4975403;28;20035;-72
2022/07/28 09:03:59;;;;;;;4.95;2.30;;;;;;;;;;4975923;28;20042;-71
2022/07/28 09:06:25;;;;;;;7.40;2.33;;;;;;;;;;4974594;28;20019;-72
2022/07/28 09:08:52;;;;;;;5.78;2.10;;;;;;;;;;4970442;28;20027;-71
2022/07/28 09:11:18;;;;;;;6.38;2.67;;;;;;;;;;4939463;29;20077;-72
2022/07/28 09:13:44;;;;;;;9.73;2.40;;;;;;;;;;4955723;29;20034;-71
2022/07/28 09:16:12;;;;;;;8.75;2.63;;;;;;;;;;4955181;28;20039;-73
2022/07/28 09:18:38;;;;;;;8.80;2.33;;;;;;;;;;4955875;29;20028;-72
2022/07/28 09:21:04;;;;;;;6.18;2.72;;;;;;;;;;4942145;28;20031;-72
2022/07/28 09:23:44;;;;;;;6.78;2.30;;;;;;;;;;4960387;28;20023;-71
2022/07/28 09:26:10;;;;;;;5.50;2.22;;;;;;;;;;4963645;28;20513;-73
2022/07/28 09:28:53;;;;;;;5.60;2.10;;;;;;;;;;4956085;28;20028;-78
2022/07/28 09:31:20;;;;;;;6.70;2.17;;;;;;;;;;4955189;28;20058;-74
2022/07/28 09:34:01;;;;;;;7.38;2.33;;;;;;;;;;4956961;28;20027;-70
2022/07/28 09:36:28;;;;;;;3.85;1.90;;;;;;;;;;4956324;28;20124;-72
2022/07/28 09:38:55;;;;;;;5.32;2.08;;;;;;;;;;4962903;28;20031;-74
2022/07/28 09:41:22;;;;;;;7.68;2.17;;;;;;;;;;4961308;28;20071;-76
2022/07/28 09:43:49;;;;;;;7.00;2.00;;;;;;;;;;4970978;28;20528;-79
2022/07/28 09:46:16;;;;;;;5.75;1.90;;;;;;;;;;4971309;28;20112;-73
2022/07/28 09:48:48;;;;;;;6.22;1.90;;;;;;;;;;4954555;28;20027;-73
2022/07/28 09:51:15;;;;;;;4.95;1.85;;;;;;;;;;4956959;28;20440;-72
2022/07/28 09:53:42;;;;;;;7.85;2.45;;;;;;;;;;4961053;28;20031;-79
2022/07/28 09:56:09;;;;;;;5.03;1.92;;;;;;;;;;4938094;29;20074;-75
2022/07/28 09:58:36;;;;;;;8.27;2.05;;;;;;;;;;4954917;28;20036;-72
2022/07/28 10:01:06;;;;;;;4.63;2.08;;;;;;;;;;4953950;28;20513;-73
2022/07/28 10:03:32;;;;;;;5.13;1.95;;;;;;;;;;4962988;28;20126;-78
2022/07/28 10:06:03;;;;;;;4.95;1.80;;;;;;;;;;4959912;28;20073;-72
2022/07/28 10:08:48;;;;;;;5.25;1.80;;;;;;;;;;4961822;28;20114;-77
2022/07/28 10:11:15;;;;;;;5.30;1.80;;;;;;;;;;4974233;28;20038;-76
2022/07/28 10:13:53;;;;;;;3.88;1.85;;;;;;;;;;4962290;28;20034;-74
2022/07/28 10:16:20;;;;;;;3.30;1.80;;;;;;;;;;4974296;28;20070;-74
2022/07/28 10:18:46;;;;;;;5.20;1.80;;;;;;;;;;4990244;28;20089;-75
2022/07/28 10:21:14;;;;;;;7.05;1.88;;;;;;;;;;4991432;28;20037;-74
2022/07/28 10:23:41;;;;;;;6.70;2.28;;;;;;;;;;4985431;28;20031;-72
2022/07/28 10:26:11;;;;;;;4.80;2.13;;;;;;;;;;4976570;28;20086;-73
2022/07/28 10:28:43;;;;;;;8.52;2.20;;;;;;;;;;4978421;28;20358;-72
2022/07/28 10:31:10;;;;;;;5.45;2.00;;;;;;;;;;4977703;28;20101;-73
2022/07/28 10:33:43;;;;;;;4.55;2.10;;;;;;;;;;4977492;28;20028;-74
2022/07/28 10:36:09;;;;;;;6.47;2.28;;;;;;;;;;4977409;28;20445;-72
2022/07/28 10:38:36;;;;;;;12.40;5.00;;;;;;;;;;4977351;28;20169;-72
2022/07/28 10:41:03;;;;;;;5.07;1.95;;;;;;;;;;4977231;28;20085;-72
2022/07/28 10:43:31;;;;;;;6.05;2.15;;;;;;;;;;4977770;28;20030;-74
2022/07/28 10:46:01;;;;;;;5.65;2.00;;;;;;;;;;4978394;28;20034;-73
2022/07/28 10:48:27;;;;;;;7.00;2.42;;;;;;;;;;4960471;28;20073;-72
2022/07/28 10:50:53;;;;;;;4.30;1.98;;;;;;;;;;4978042;28;20034;-73
2022/07/28 10:53:38;;;;;;;7.85;2.20;;;;;;;;;;4960357;28;20027;-71
2022/07/28 10:56:10;;;;;;;3.40;2.03;;;;;;;;;;4977605;28;20027;-71
2022/07/28 10:58:54;;;;;;;6.18;1.88;;;;;;;;;;4977905;28;20393;-71
2022/07/28 11:01:34;;;;;;;3.65;1.70;;;;;;;;;;4977515;28;20026;-73
2022/07/28 11:04:00;;;;;;;8.07;2.08;;;;;;;;;;4977407;28;20497;-72
2022/07/28 11:06:32;;;;;;;6.55;2.05;;;;;;;;;;4977460;28;20031;-72
2022/07/28 11:08:59;;;;;;;6.28;2.00;;;;;;;;;;4977685;28;20507;-73
2022/07/28 11:11:58;;;;;;;5.80;1.70;;;;;;;;;;4977925;28;20038;-72
2022/07/28 11:14:32;;;;;;;3.72;1.75;;;;;;;;;;4928564;28;20038;-73
2022/07/28 11:17:04;;;;;;;5.72;1.83;;;;;;;;;;4977843;28;20035;-74
2022/07/28 11:19:42;;;;;;;4.18;1.73;;;;;;;;;;4959829;28;20398;-74
2022/07/28 11:22:16;;;;;;;4.32;1.80;;;;;;;;;;4977683;28;20039;-71
2022/07/28 11:24:57;;;;;;;6.05;1.70;;;;;;;;;;4977641;28;20019;-72
2022/07/28 11:27:41;;;;;;;5.18;2.15;;;;;;;;;;4977645;28;20030;-73
2022/07/28 11:30:10;;;;;;;3.33;1.85;;;;;;;;;;4977053;28;20106;-73
2022/07/28 11:32:54;;;;;;;3.17;1.50;;;;;;;;;;4977276;28;20077;-71
2022/07/28 11:35:20;;;;;;;2.83;1.58;;;;;;;;;;4977509;28;20090;-74
2022/07/28 11:38:02;;;;;;;5.45;2.13;;;;;;;;;;4977160;28;20028;-73
2022/07/28 11:40:31;;;;;;;3.28;1.60;;;;;;;;;;4976220;28;20478;-73
2022/07/28 11:43:16;;;;;;;7.07;2.80;;;;;;;;;;4959400;28;20421;-73
2022/07/28 11:45:42;;;;;;;4.97;2.00;;;;;;;;;;4976762;28;20101;-71
2022/07/28 11:48:20;;;;;;;3.15;1.50;;;;;;;;;;4959322;28;20118;-71
2022/07/28 11:51:04;;;;;;;3.15;1.58;;;;;;;;;;4977204;28;20030;-73
2022/07/28 11:53:38;;;;;;;7.45;1.75;;;;;;;;;;4976629;28;20026;-72
2022/07/28 11:56:09;;;;;;;4.05;1.55;;;;;;;;;;4976548;28;20113;-73
2022/07/28 11:58:36;;;;;;;4.35;2.00;;;;;;;;;;4976558;28;20058;-71
2022/07/28 12:01:18;;;;;;;7.35;1.88;;;;;;;;;;4976301;28;20456;-73
2022/07/28 12:03:48;;;;;;;3.85;1.70;;;;;;;;;;4976302;28;20047;-72
2022/07/28 12:06:15;;;;;;;4.45;1.70;;;;;;;;;;4976208;28;20031;-72
2022/07/28 12:08:50;;;;;;;4.07;1.50;;;;;;;;;;4976336;28;20030;-72
2022/07/28 12:11:16;;;;;;;2.22;1.58;;;;;;;;;;4976786;28;20027;-73
2022/07/28 12:13:42;;;;;;;4.65;1.98;;;;;;;;;;4976870;28;20077;-71
2022/07/28 12:16:09;;;;;;;3.08;1.52;;;;;;;;;;4976489;28;20109;-71
2022/07/28 12:18:35;;;;;;;7.10;1.90;;;;;;;;;;4976157;28;20030;-74
2022/07/28 12:21:01;;;;;;;5.97;1.80;;;;;;;;;;4976038;28;20497;-73
2022/07/28 12:23:36;;;;;;;4.45;1.50;;;;;;;;;;4958792;28;20062;-73
2022/07/28 12:26:06;;;;;;;4.13;1.90;;;;;;;;;;4958694;28;20034;-73
2022/07/28 12:28:31;;;;;;;;;;;;;;;;;;4976394;28;20030;-72
2022/07/28 12:31:14;;;;;;;4.80;2.05;;;;;;;;;;4975959;28;19906;-72
2022/07/28 12:33:40;;;;;;;3.80;1.45;;;;;;;;;;4976413;28;20033;-72
2022/07/28 12:36:06;;;;;;;5.70;1.70;;;;;;;;;;4975851;28;20057;-73
2022/07/28 12:38:32;;;;;;;3.67;2.00;;;;;;;;;;4976041;28;20481;-72
2022/07/28 12:40:58;;;;;;;5.75;1.75;;;;;;;;;;4958266;28;20430;-73
2022/07/28 12:43:28;;;;;;;4.32;1.95;;;;;;;;;;4975727;28;20069;-71
2022/07/28 12:45:54;;;;;;;4.70;1.58;;;;;;;;;;4975664;28;20015;-72
2022/07/28 12:48:20;;;;;;;6.38;1.80;;;;;;;;;;4975664;28;20033;-73
2022/07/28 12:50:47;;;;;;;5.47;1.85;;;;;;;;;;4975341;28;20023;-71
2022/07/28 12:53:14;;;;;;;5.07;1.80;;;;;;;;;;4958252;28;20039;-73
2022/07/28 12:55:42;;;;;;;7.35;1.63;;;;;;;;;;4975474;28;20123;-73
2022/07/28 12:58:20;;;;;;;3.95;1.60;;;;;;;;;;4975422;28;20031;-73
2022/07/28 13:00:48;;;;;;;6.15;1.77;;;;;;;;;;4975537;28;20350;-71
2022/07/28 13:03:23;;;;;;;2.78;1.35;;;;;;;;;;4957789;28;20064;-73
2022/07/28 13:06:01;;;;;;;2.55;1.50;;;;;;;;;;4975296;28;20027;-72
2022/07/28 13:08:28;;;;;;;6.38;1.73;;;;;;;;;;4975792;28;20471;-72
2022/07/28 13:10:54;;;;;;;3.97;2.08;;;;;;;;;;4975153;28;20027;-74
2022/07/28 13:13:20;;;;;;;3.17;1.42;;;;;;;;;;4975943;28;20041;-73
2022/07/28 13:16:06;;;;;;;2.67;1.70;;;;;;;;;;4975398;28;20070;-72
2022/07/28 13:18:39;;;;;;;4.28;1.75;;;;;;;;;;4975517;28;20077;-72
2022/07/28 13:21:05;;;;;;;8.68;3.05;;;;;;;;;;4975500;28;20138;-72
2022/07/28 13:23:31;;;;;;;7.18;2.63;;;;;;;;;;4975004;28;20438;-72
2022/07/28 13:25:57;;;;;;;3.42;1.42;;;;;;;;;;4974947;28;20055;-71
2022/07/28 13:28:25;;;;;;;3.50;1.70;;;;;;;;;;4974869;28;20030;-72
2022/07/28 13:30:51;;;;;;;5.43;1.90;;;;;;;;;;4975139;28;20027;-72
2022/07/28 13:33:18;;;;;;;5.72;1.80;;;;;;;;;;4975362;28;20038;-71
2022/07/28 13:35:44;;;;;;;5.32;1.98;;;;;;;;;;4974772;28;20030;-73
2022/07/28 13:38:10;;;;;;;6.35;1.80;;;;;;;;;;4957439;28;20031;-72
2022/07/28 13:40:36;;;;;;;4.50;1.88;;;;;;;;;;4974600;28;20035;-72
2022/07/28 13:43:03;;;;;;;4.78;1.80;;;;;;;;;;4974673;28;20107;-74
2022/07/28 13:45:29;;;;;;;3.85;1.90;;;;;;;;;;4974619;28;20362;-72
2022/07/28 13:47:55;;;;;;;5.63;1.95;;;;;;;;;;4974583;28;20019;-72
2022/07/28 13:50:21;;;;;;;4.18;1.63;;;;;;;;;;4974867;28;20034;-72
2022/07/28 13:52:47;;;;;;;4.75;1.88;;;;;;;;;;4974519;28;20042;-72
2022/07/28 13:55:13;;;;;;;5.75;2.60;;;;;;;;;;4974523;28;20030;-72
2022/07/28 13:57:39;;;;;;;5.57;2.03;;;;;;;;;;4957136;28;20073;-73
2022/07/28 14:00:06;;;;;;;6.57;2.40;;;;;;;;;;4974288;28;20476;-73
2022/07/28 14:02:32;;;;;;;8.52;1.98;;;;;;;;;;4973871;28;20055;-73
2022/07/28 14:04:58;;;;;;;8.38;2.00;;;;;;;;;;4954997;28;20118;-71
2022/07/28 14:07:24;;;;;;;4.57;1.90;;;;;;;;;;4955417;29;20126;-73
2022/07/28 14:09:50;;;;;;;6.35;2.08;;;;;;;;;;4937941;29;20019;-74
2022/07/28 14:12:16;;;;;;;5.15;1.83;;;;;;;;;;4955900;29;20100;-72
2022/07/28 14:14:42;;;;;;;7.05;1.50;;;;;;;;;;4937847;29;20374;-73
2022/07/28 14:17:08;;;;;;;4.25;1.52;;;;;;;;;;4955013;29;20113;-73
2022/07/28 14:19:35;;;;;;;3.10;1.48;;;;;;;;;;4955334;29;20037;-71
2022/07/28 14:22:01;;;;;;;3.40;1.70;;;;;;;;;;4954918;29;20107;-71
2022/07/28 14:24:27;;;;;;;4.57;1.85;;;;;;;;;;4954980;29;20027;-71
2022/07/28 14:26:54;;;;;;;3.95;1.70;;;;;;;;;;4955460;29;20114;-72
2022/07/28 14:29:20;;;;;;;3.67;1.50;;;;;;;;;;4955206;29;20019;-71
2022/07/28 14:31:46;;;;;;;4.75;1.70;;;;;;;;;;4954903;29;20398;-73
2022/07/28 14:34:12;;;;;;;3.58;1.92;;;;;;;;;;4954852;29;20113;-72
2022/07/28 14:36:38;;;;;;;3.78;1.80;;;;;;;;;;4954872;29;20043;-71
2022/07/28 14:39:04;;;;;;;6.50;1.95;;;;;;;;;;4937589;29;20479;-71
2022/07/28 14:41:30;;;;;;;7.53;2.00;;;;;;;;;;4937758;29;20042;-73
2022/07/28 14:43:57;;;;;;;6.13;1.80;;;;;;;;;;4955083;29;20102;-72
2022/07/28 14:46:24;;;;;;;5.82;1.65;;;;;;;;;;4955010;29;20023;-73
2022/07/28 14:48:50;;;;;;;4.55;1.90;;;;;;;;;;4955032;29;20025;-71